Time;durP1;ratioP1;P1;durP2;ratioP2;P2;SDS_P1;SDS_P2;PMS_P1;PMS_P2;Temp;Humidity;BMP_temperature;BMP_pressure;BME280_temperature;BME280_humidity;BME280_pressure;Samples;Min_cycle;Max_cycle;Signal;HPM_P1;HPM_P2
2024/01/24 00:01:01;;;;;;;1.60;0.30;;;;;;;;;;5029070;28;20044;-57
2024/01/24 00:03:27;;;;;;;2.47;0.47;;;;;;;;;;5032944;28;20018;-57
2024/01/24 00:05:54;;;;;;;1.98;0.40;;;;;;;;;;5027691;28;20022;-58
2024/01/24 00:08:19;;;;;;;2.35;0.50;;;;;;;;;;5014600;28;20026;-58
2024/01/24 00:10:44;;;;;;;3.58;0.45;;;;;;;;;;5021559;28;20010;-57
2024/01/24 00:13:09;;;;;;;2.20;0.40;;;;;;;;;;5035147;28;20030;-57
2024/01/24 00:15:34;;;;;;;5.63;0.90;;;;;;;;;;5034647;28;20018;-57
2024/01/24 00:17:59;;;;;;;6.68;0.95;;;;;;;;;;5033486;28;20022;-57
2024/01/24 00:20:25;;;;;;;4.50;0.87;;;;;;;;;;5022413;28;20070;-57
2024/01/24 00:22:50;;;;;;;5.70;0.90;;;;;;;;;;5032287;28;20389;-57
2024/01/24 00:25:17;;;;;;;7.72;1.30;;;;;;;;;;5033569;28;20033;-57
2024/01/24 00:27:42;;;;;;;6.97;1.10;;;;;;;;;;5039164;28;20013;-57
2024/01/24 00:30:07;;;;;;;7.75;1.13;;;;;;;;;;5029915;28;20036;-57
2024/01/24 00:32:32;;;;;;;7.13;1.10;;;;;;;;;;5044056;28;20029;-56
2024/01/24 00:34:57;;;;;;;6.25;1.25;;;;;;;;;;5039013;28;20443;-56
2024/01/24 00:37:23;;;;;;;4.85;1.00;;;;;;;;;;5033000;28;20395;-57
2024/01/24 00:39:48;;;;;;;5.97;1.00;;;;;;;;;;5015234;28;20017;-57
2024/01/24 00:42:13;;;;;;;4.75;1.10;;;;;;;;;;5030279;28;20072;-58
2024/01/24 00:44:39;;;;;;;7.10;1.20;;;;;;;;;;5030219;28;20053;-57
2024/01/24 00:47:04;;;;;;;8.13;1.60;;;;;;;;;;5040873;28;20022;-57
2024/01/24 00:49:30;;;;;;;5.53;1.33;;;;;;;;;;5032035;28;20033;-57
2024/01/24 00:51:55;;;;;;;6.43;1.40;;;;;;;;;;5025764;28;20026;-57
2024/01/24 00:54:20;;;;;;;7.07;1.30;;;;;;;;;;5022162;28;20022;-57
2024/01/24 00:56:45;;;;;;;4.35;0.95;;;;;;;;;;5022041;28;20021;-57
2024/01/24 00:59:11;;;;;;;9.77;1.50;;;;;;;;;;5031852;28;20021;-56
2024/01/24 01:01:36;;;;;;;6.60;1.58;;;;;;;;;;5024791;28;20030;-57
2024/01/24 01:04:01;;;;;;;6.25;1.60;;;;;;;;;;5028016;28;20115;-56
2024/01/24 01:06:27;;;;;;;5.80;1.10;;;;;;;;;;5026019;28;20516;-57
2024/01/24 01:08:52;;;;;;;5.07;1.30;;;;;;;;;;5024807;28;20021;-57
2024/01/24 01:11:17;;;;;;;7.07;1.45;;;;;;;;;;5021845;28;20037;-56
2024/01/24 01:13:42;;;;;;;8.60;1.30;;;;;;;;;;5031628;28;20026;-57
2024/01/24 01:16:07;;;;;;;5.53;0.90;;;;;;;;;;5018855;28;20088;-56
2024/01/24 01:18:32;;;;;;;3.97;0.90;;;;;;;;;;5017812;28;20029;-58
2024/01/24 01:20:58;;;;;;;4.57;1.00;;;;;;;;;;5030476;28;20021;-55
2024/01/24 01:23:23;;;;;;;4.35;0.70;;;;;;;;;;5019485;28;20497;-58
2024/01/24 01:25:49;;;;;;;5.72;0.88;;;;;;;;;;5011826;28;20033;-56
2024/01/24 01:28:14;;;;;;;3.65;1.13;;;;;;;;;;5028133;28;20086;-57
2024/01/24 01:30:39;;;;;;;4.80;1.10;;;;;;;;;;5028729;28;20030;-56
2024/01/24 01:33:04;;;;;;;6.38;0.80;;;;;;;;;;5031482;28;20020;-56
2024/01/24 01:35:29;;;;;;;2.80;0.60;;;;;;;;;;5030945;28;20049;-57
2024/01/24 01:37:54;;;;;;;2.13;0.40;;;;;;;;;;5029940;28;20021;-56
2024/01/24 01:40:20;;;;;;;2.75;0.50;;;;;;;;;;5031538;28;20424;-57
2024/01/24 01:42:45;;;;;;;3.20;0.70;;;;;;;;;;5033019;28;20547;-57
2024/01/24 01:45:10;;;;;;;2.50;0.60;;;;;;;;;;5035759;28;20021;-57
2024/01/24 01:47:36;;;;;;;2.38;0.57;;;;;;;;;;5028139;28;20473;-57
2024/01/24 01:50:02;;;;;;;3.33;0.90;;;;;;;;;;5029472;28;20033;-58
2024/01/24 01:52:27;;;;;;;2.75;0.75;;;;;;;;;;5030001;28;20148;-58
2024/01/24 01:54:53;;;;;;;4.22;0.80;;;;;;;;;;5023822;28;20029;-56
2024/01/24 01:57:18;;;;;;;5.03;1.00;;;;;;;;;;5030322;28;20032;-58
2024/01/24 01:59:44;;;;;;;3.78;0.70;;;;;;;;;;5030473;28;20017;-57
2024/01/24 02:02:10;;;;;;;2.10;0.52;;;;;;;;;;5028099;28;20049;-58
2024/01/24 02:04:35;;;;;;;3.08;0.73;;;;;;;;;;5029415;28;20048;-56
2024/01/24 02:07:00;;;;;;;3.75;0.70;;;;;;;;;;5025501;28;20045;-58
2024/01/24 02:09:25;;;;;;;4.85;0.90;;;;;;;;;;5026581;28;20044;-58
2024/01/24 02:11:50;;;;;;;3.57;0.90;;;;;;;;;;5031834;28;20026;-57
2024/01/24 02:14:16;;;;;;;3.50;0.80;;;;;;;;;;5024731;28;20380;-58
2024/01/24 02:16:43;;;;;;;1.77;0.60;;;;;;;;;;5016510;28;20099;-58
2024/01/24 02:19:08;;;;;;;3.92;0.60;;;;;;;;;;5032749;28;20029;-58
2024/01/24 02:21:33;;;;;;;2.42;0.70;;;;;;;;;;5031156;28;20096;-57
2024/01/24 02:24:01;;;;;;;2.63;0.70;;;;;;;;;;5028170;28;20025;-57
2024/01/24 02:26:27;;;;;;;4.68;0.68;;;;;;;;;;5030829;28;20029;-57
2024/01/24 02:28:52;;;;;;;3.30;0.93;;;;;;;;;;5025843;28;20055;-58
2024/01/24 02:31:17;;;;;;;4.15;1.00;;;;;;;;;;5030723;28;20025;-58
2024/01/24 02:33:42;;;;;;;3.85;0.88;;;;;;;;;;5028772;28;20083;-58
2024/01/24 02:36:08;;;;;;;3.77;0.80;;;;;;;;;;5030730;28;20036;-56
2024/01/24 02:38:33;;;;;;;4.53;0.88;;;;;;;;;;5030189;28;20018;-58
2024/01/24 02:40:59;;;;;;;2.73;0.67;;;;;;;;;;5030153;28;20440;-58
2024/01/24 02:43:24;;;;;;;3.65;0.70;;;;;;;;;;5029584;28;20036;-57
2024/01/24 02:45:49;;;;;;;3.28;0.75;;;;;;;;;;5030543;28;20013;-60
2024/01/24 02:48:14;;;;;;;1.85;0.40;;;;;;;;;;5030124;28;20064;-58
2024/01/24 02:50:39;;;;;;;2.30;0.60;;;;;;;;;;5030319;28;20025;-57
2024/01/24 02:53:04;;;;;;;3.33;0.77;;;;;;;;;;5032330;28;20038;-58
2024/01/24 02:55:29;;;;;;;4.80;0.70;;;;;;;;;;5032561;28;20026;-57
2024/01/24 02:57:55;;;;;;;1.53;0.60;;;;;;;;;;5031151;28;20021;-57
2024/01/24 03:00:20;;;;;;;3.03;0.57;;;;;;;;;;5030789;28;20014;-59
2024/01/24 03:02:46;;;;;;;1.88;0.45;;;;;;;;;;5020199;28;20460;-59
2024/01/24 03:05:11;;;;;;;3.25;0.50;;;;;;;;;;5029945;28;20457;-59
2024/01/24 03:07:36;;;;;;;1.48;0.50;;;;;;;;;;5027168;28;20378;-58
2024/01/24 03:10:02;;;;;;;2.50;0.50;;;;;;;;;;5029259;28;20030;-57
2024/01/24 03:12:27;;;;;;;3.63;0.60;;;;;;;;;;5020427;28;20026;-57
2024/01/24 03:14:52;;;;;;;1.10;0.50;;;;;;;;;;5021543;28;20021;-57
2024/01/24 03:17:18;;;;;;;1.73;0.60;;;;;;;;;;5021504;28;20038;-58
2024/01/24 03:19:43;;;;;;;3.15;0.70;;;;;;;;;;5023229;28;20022;-59
2024/01/24 03:22:08;;;;;;;2.85;0.60;;;;;;;;;;5028162;28;20025;-59
2024/01/24 03:24:33;;;;;;;2.28;0.50;;;;;;;;;;5028640;28;20513;-57
2024/01/24 03:26:59;;;;;;;2.05;0.57;;;;;;;;;;5032017;28;20070;-58
2024/01/24 03:29:24;;;;;;;3.05;0.60;;;;;;;;;;5031788;28;20029;-57
2024/01/24 03:31:49;;;;;;;2.58;0.47;;;;;;;;;;5029917;28;20050;-58
2024/01/24 03:34:14;;;;;;;3.63;0.60;;;;;;;;;;5021595;28;20022;-57
2024/01/24 03:36:39;;;;;;;1.95;0.50;;;;;;;;;;5033652;28;20033;-58
2024/01/24 03:39:04;;;;;;;2.30;0.70;;;;;;;;;;5027749;28;20056;-57
2024/01/24 03:41:30;;;;;;;2.63;0.47;;;;;;;;;;5032845;28;20093;-56
2024/01/24 03:43:55;;;;;;;2.05;0.55;;;;;;;;;;5028164;28;20021;-57
2024/01/24 03:46:20;;;;;;;2.80;0.50;;;;;;;;;;5021274;28;20022;-57
2024/01/24 03:48:46;;;;;;;3.03;0.60;;;;;;;;;;5022124;28;20022;-58
2024/01/24 03:51:11;;;;;;;4.72;0.80;;;;;;;;;;5032337;28;20481;-57
2024/01/24 03:53:36;;;;;;;3.28;0.70;;;;;;;;;;5030737;28;20041;-57
2024/01/24 03:56:01;;;;;;;3.30;0.80;;;;;;;;;;5016609;28;20018;-58
2024/01/24 03:58:27;;;;;;;4.40;0.63;;;;;;;;;;5027844;28;20520;-57
2024/01/24 04:00:54;;;;;;;3.17;0.70;;;;;;;;;;5032728;28;20087;-59
2024/01/24 04:03:19;;;;;;;2.72;0.60;;;;;;;;;;5032727;28;20033;-56
2024/01/24 04:05:45;;;;;;;3.10;0.70;;;;;;;;;;5034633;28;20025;-56
2024/01/24 04:08:10;;;;;;;2.72;0.73;;;;;;;;;;5039692;28;20490;-58
2024/01/24 04:10:35;;;;;;;4.05;0.60;;;;;;;;;;5031947;28;20620;-56
2024/01/24 04:13:00;;;;;;;2.13;0.50;;;;;;;;;;5031401;28;20025;-58
2024/01/24 04:15:27;;;;;;;2.17;0.63;;;;;;;;;;5032245;28;20031;-57
2024/01/24 04:17:52;;;;;;;;;;;;;;;;;;5029099;28;20025;-57
2024/01/24 04:20:17;;;;;;;2.38;0.52;;;;;;;;;;5028982;28;19912;-60
2024/01/24 04:22:42;;;;;;;2.60;1.05;;;;;;;;;;5028741;28;20049;-57
2024/01/24 04:25:08;;;;;;;3.47;0.60;;;;;;;;;;5031344;28;20580;-57
2024/01/24 04:27:33;;;;;;;1.93;0.50;;;;;;;;;;5028919;28;20029;-56
2024/01/24 04:29:58;;;;;;;3.53;0.68;;;;;;;;;;5031097;28;20037;-57
2024/01/24 04:32:24;;;;;;;4.43;0.50;;;;;;;;;;5032164;28;20026;-56
2024/01/24 04:34:49;;;;;;;3.63;0.60;;;;;;;;;;5032493;28;20032;-57
2024/01/24 04:37:14;;;;;;;2.05;0.60;;;;;;;;;;5030606;28;20038;-57
2024/01/24 04:39:39;;;;;;;2.10;0.50;;;;;;;;;;5026793;28;20508;-57
2024/01/24 04:42:04;;;;;;;1.45;0.47;;;;;;;;;;5033617;28;20021;-59
2024/01/24 04:44:30;;;;;;;2.63;0.50;;;;;;;;;;5032007;28;20052;-58
2024/01/24 04:46:55;;;;;;;2.25;0.40;;;;;;;;;;5033574;28;20018;-56
2024/01/24 04:49:20;;;;;;;2.75;0.95;;;;;;;;;;5030912;28;20033;-56
2024/01/24 04:51:45;;;;;;;2.90;0.70;;;;;;;;;;5032729;28;20017;-58
2024/01/24 04:54:11;;;;;;;2.83;0.50;;;;;;;;;;5032247;28;20025;-57
2024/01/24 04:56:38;;;;;;;2.47;0.50;;;;;;;;;;5032133;28;20421;-57
2024/01/24 04:59:03;;;;;;;1.27;0.40;;;;;;;;;;5031009;28;20049;-59
2024/01/24 05:01:28;;;;;;;2.77;0.70;;;;;;;;;;5029981;28;20099;-57
2024/01/24 05:03:54;;;;;;;1.73;0.40;;;;;;;;;;5031834;28;20825;-58
2024/01/24 05:06:19;;;;;;;3.30;0.73;;;;;;;;;;5031810;28;20441;-60
2024/01/24 05:08:45;;;;;;;2.73;0.60;;;;;;;;;;5030115;28;20505;-57
2024/01/24 05:11:10;;;;;;;2.63;0.50;;;;;;;;;;5031657;28;20522;-58
2024/01/24 05:13:36;;;;;;;1.37;0.40;;;;;;;;;;5031127;28;20021;-57
2024/01/24 05:16:01;;;;;;;1.90;0.57;;;;;;;;;;5031903;28;20024;-58
2024/01/24 05:18:26;;;;;;;1.93;0.47;;;;;;;;;;5029205;28;20021;-58
2024/01/24 05:20:52;;;;;;;3.80;0.60;;;;;;;;;;5027716;28;20036;-57
2024/01/24 05:23:17;;;;;;;2.37;0.57;;;;;;;;;;5030851;28;20017;-58
2024/01/24 05:25:42;;;;;;;2.78;0.60;;;;;;;;;;5026561;28;20117;-57
2024/01/24 05:28:09;;;;;;;2.72;0.60;;;;;;;;;;5030575;28;20025;-57
2024/01/24 05:30:34;;;;;;;3.05;0.60;;;;;;;;;;5025739;28;20022;-56
2024/01/24 05:32:59;;;;;;;1.70;0.47;;;;;;;;;;5022611;28;20029;-60
2024/01/24 05:35:24;;;;;;;2.33;0.50;;;;;;;;;;5013863;28;20501;-58
2024/01/24 05:37:49;;;;;;;2.53;0.50;;;;;;;;;;5021664;28;20025;-59
2024/01/24 05:40:15;;;;;;;2.35;0.60;;;;;;;;;;5022856;28;20123;-57
2024/01/24 05:42:40;;;;;;;2.30;0.53;;;;;;;;;;5015884;28;20018;-59
2024/01/24 05:45:05;;;;;;;5.93;1.20;;;;;;;;;;5025072;28;20559;-58
2024/01/24 05:47:31;;;;;;;2.15;0.50;;;;;;;;;;5031411;28;20637;-59
2024/01/24 05:49:56;;;;;;;3.50;0.50;;;;;;;;;;5026259;28;20026;-58
2024/01/24 05:52:21;;;;;;;2.23;0.60;;;;;;;;;;5019820;28;20025;-57
2024/01/24 05:54:46;;;;;;;3.00;0.60;;;;;;;;;;5031779;28;20551;-56
2024/01/24 05:57:11;;;;;;;3.13;0.50;;;;;;;;;;5031559;28;20060;-60
2024/01/24 05:59:36;;;;;;;3.67;0.50;;;;;;;;;;5022602;28;20133;-65
2024/01/24 06:02:01;;;;;;;1.20;0.40;;;;;;;;;;5029559;28;20029;-57
2024/01/24 06:04:27;;;;;;;2.08;0.45;;;;;;;;;;5030510;28;20017;-57
2024/01/24 06:06:54;;;;;;;2.63;0.40;;;;;;;;;;5026788;28;20028;-58
2024/01/24 06:09:20;;;;;;;2.15;0.47;;;;;;;;;;5023868;28;20029;-58
2024/01/24 06:11:48;;;;;;;3.50;0.60;;;;;;;;;;5033667;28;20105;-56
2024/01/24 06:14:13;;;;;;;2.53;0.55;;;;;;;;;;5035005;28;20520;-58
2024/01/24 06:16:38;;;;;;;2.00;0.60;;;;;;;;;;5028664;28;20018;-57
2024/01/24 06:19:03;;;;;;;2.67;0.57;;;;;;;;;;5023384;28;20029;-57
2024/01/24 06:21:28;;;;;;;3.20;0.50;;;;;;;;;;5031057;28;20163;-60
2024/01/24 06:23:54;;;;;;;2.05;0.50;;;;;;;;;;5029771;28;20620;-57
2024/01/24 06:26:19;;;;;;;2.15;0.40;;;;;;;;;;5031357;28;20065;-58
2024/01/24 06:28:44;;;;;;;1.95;0.57;;;;;;;;;;5034458;28;20036;-57
2024/01/24 06:31:09;;;;;;;2.63;0.50;;;;;;;;;;5030121;28;20018;-58
2024/01/24 06:33:34;;;;;;;2.38;0.45;;;;;;;;;;5030379;28;20022;-56
2024/01/24 06:36:00;;;;;;;3.87;0.50;;;;;;;;;;5030826;28;20018;-58
2024/01/24 06:38:25;;;;;;;2.20;0.50;;;;;;;;;;5025586;28;20144;-58
2024/01/24 06:40:50;;;;;;;1.52;0.50;;;;;;;;;;5029736;28;20478;-58
2024/01/24 06:43:18;;;;;;;2.60;0.40;;;;;;;;;;5028681;28;20104;-57
2024/01/24 06:45:43;;;;;;;2.75;0.50;;;;;;;;;;5031161;28;20066;-58
2024/01/24 06:48:08;;;;;;;3.97;0.60;;;;;;;;;;5031914;28;20071;-59
2024/01/24 06:50:34;;;;;;;4.15;0.80;;;;;;;;;;5033443;28;20009;-58
2024/01/24 06:52:59;;;;;;;1.93;0.50;;;;;;;;;;5029814;28;20088;-57
2024/01/24 06:55:24;;;;;;;1.15;0.30;;;;;;;;;;5028647;28;20076;-57
2024/01/24 06:57:49;;;;;;;2.00;0.52;;;;;;;;;;5029084;28;20018;-57
2024/01/24 07:00:14;;;;;;;1.10;0.38;;;;;;;;;;5027116;28;20119;-58
2024/01/24 07:02:40;;;;;;;1.48;0.40;;;;;;;;;;5025931;28;20077;-57
2024/01/24 07:05:05;;;;;;;2.13;0.40;;;;;;;;;;5017603;28;20441;-56
2024/01/24 07:07:30;;;;;;;1.98;0.50;;;;;;;;;;5023980;28;20113;-56
2024/01/24 07:09:55;;;;;;;1.57;0.87;;;;;;;;;;5021530;28;20065;-56
2024/01/24 07:12:20;;;;;;;2.45;0.40;;;;;;;;;;5024429;28;20064;-57
2024/01/24 07:14:48;;;;;;;2.80;0.47;;;;;;;;;;5027467;28;20025;-58
2024/01/24 07:17:13;;;;;;;1.05;0.30;;;;;;;;;;5041323;28;20100;-57
2024/01/24 07:19:38;;;;;;;2.83;0.40;;;;;;;;;;5030878;28;20456;-58
2024/01/24 07:22:03;;;;;;;3.22;0.50;;;;;;;;;;5029111;28;20029;-57
2024/01/24 07:24:29;;;;;;;2.10;0.55;;;;;;;;;;5033839;28;20092;-58
2024/01/24 07:26:54;;;;;;;2.70;0.40;;;;;;;;;;5033174;28;20032;-57
2024/01/24 07:29:20;;;;;;;1.13;0.30;;;;;;;;;;5034445;28;20057;-58
2024/01/24 07:31:45;;;;;;;1.98;0.30;;;;;;;;;;5041299;28;20013;-57
2024/01/24 07:34:11;;;;;;;2.83;0.47;;;;;;;;;;5032355;28;20028;-56
2024/01/24 07:36:37;;;;;;;1.60;0.40;;;;;;;;;;5035325;28;20021;-57
2024/01/24 07:39:04;;;;;;;1.67;0.30;;;;;;;;;;5033826;28;20382;-56
2024/01/24 07:41:29;;;;;;;1.33;0.30;;;;;;;;;;5033945;28;20021;-58
2024/01/24 07:43:55;;;;;;;1.90;0.25;;;;;;;;;;5030733;28;20079;-56
2024/01/24 07:46:20;;;;;;;1.23;0.40;;;;;;;;;;5033891;28;20017;-58
2024/01/24 07:48:45;;;;;;;1.27;0.40;;;;;;;;;;5034293;28;20032;-57
2024/01/24 07:51:10;;;;;;;0.93;0.30;;;;;;;;;;5034234;28;20029;-58
2024/01/24 07:53:38;;;;;;;1.88;0.20;;;;;;;;;;5026629;28;20026;-57
2024/01/24 07:56:03;;;;;;;2.10;0.35;;;;;;;;;;5027179;28;20087;-58
2024/01/24 07:58:28;;;;;;;0.70;0.20;;;;;;;;;;5033208;28;20018;-58
2024/01/24 08:00:55;;;;;;;2.40;1.02;;;;;;;;;;5031602;28;20071;-58
2024/01/24 08:03:20;;;;;;;1.48;0.40;;;;;;;;;;5029984;28;20052;-57
2024/01/24 08:05:46;;;;;;;1.75;0.40;;;;;;;;;;5031430;28;20021;-57
2024/01/24 08:08:11;;;;;;;1.07;0.20;;;;;;;;;;5033372;28;20076;-58
2024/01/24 08:10:37;;;;;;;0.63;0.20;;;;;;;;;;5033089;28;20435;-57
2024/01/24 08:13:02;;;;;;;1.65;0.47;;;;;;;;;;5027680;28;20040;-57
2024/01/24 08:15:27;;;;;;;1.47;0.40;;;;;;;;;;5030570;28;20025;-57
2024/01/24 08:17:53;;;;;;;1.13;0.20;;;;;;;;;;5031464;28;20444;-57
2024/01/24 08:20:19;;;;;;;1.77;0.40;;;;;;;;;;5034980;28;20401;-57
2024/01/24 08:22:44;;;;;;;3.40;0.82;;;;;;;;;;5033977;28;20029;-57
2024/01/24 08:25:10;;;;;;;3.20;0.40;;;;;;;;;;5029827;28;20040;-58
2024/01/24 08:27:36;;;;;;;2.20;0.47;;;;;;;;;;5029898;28;20025;-57
2024/01/24 08:30:01;;;;;;;2.38;0.50;;;;;;;;;;5032799;28;20114;-59
2024/01/24 08:32:26;;;;;;;2.65;0.38;;;;;;;;;;5030962;28;20014;-58
2024/01/24 08:34:52;;;;;;;1.83;0.30;;;;;;;;;;5026759;28;20458;-57
2024/01/24 08:37:17;;;;;;;0.75;0.30;;;;;;;;;;5032921;28;20030;-58
2024/01/24 08:39:42;;;;;;;1.42;0.30;;;;;;;;;;5029345;28;20131;-58
2024/01/24 08:42:07;;;;;;;2.80;0.77;;;;;;;;;;5032439;28;20026;-58
2024/01/24 08:44:33;;;;;;;1.10;0.30;;;;;;;;;;5036511;28;20022;-61
2024/01/24 08:46:58;;;;;;;0.30;0.17;;;;;;;;;;5038712;28;20029;-57
2024/01/24 08:49:23;;;;;;;1.50;0.40;;;;;;;;;;5031137;28;20026;-56
2024/01/24 08:51:48;;;;;;;0.17;0.10;;;;;;;;;;5032695;28;20032;-57
2024/01/24 08:54:13;;;;;;;1.17;0.20;;;;;;;;;;5035970;28;20025;-57
2024/01/24 08:56:39;;;;;;;0.95;0.20;;;;;;;;;;5042149;28;20061;-57
2024/01/24 08:59:04;;;;;;;1.17;0.28;;;;;;;;;;5046915;28;20124;-58
2024/01/24 09:01:29;;;;;;;1.58;0.30;;;;;;;;;;5043818;28;20017;-58
2024/01/24 09:03:54;;;;;;;2.55;0.30;;;;;;;;;;5043198;28;20386;-58
2024/01/24 09:06:21;;;;;;;1.20;0.30;;;;;;;;;;5047239;28;20108;-58
2024/01/24 09:08:51;;;;;;;2.90;0.20;;;;;;;;;;5042404;28;20026;-58
2024/01/24 09:11:16;;;;;;;2.25;0.45;;;;;;;;;;5043421;28;20025;-57
2024/01/24 09:13:42;;;;;;;0.87;0.20;;;;;;;;;;5045256;28;20032;-57
2024/01/24 09:16:08;;;;;;;0.88;0.30;;;;;;;;;;5049878;28;20056;-58
2024/01/24 09:18:33;;;;;;;1.50;0.25;;;;;;;;;;5049721;28;20060;-63
2024/01/24 09:20:58;;;;;;;1.33;0.30;;;;;;;;;;5042086;28;20457;-57
2024/01/24 09:23:23;;;;;;;1.38;0.15;;;;;;;;;;5048511;28;20025;-59
2024/01/24 09:25:49;;;;;;;0.85;0.20;;;;;;;;;;5045314;28;20049;-57
2024/01/24 09:28:14;;;;;;;1.00;0.28;;;;;;;;;;5032935;28;20469;-58
2024/01/24 09:30:39;;;;;;;1.58;0.30;;;;;;;;;;5031558;28;20049;-58
2024/01/24 09:33:05;;;;;;;1.27;0.30;;;;;;;;;;5031657;28;20033;-59
2024/01/24 09:35:30;;;;;;;2.15;0.22;;;;;;;;;;5032473;28;20084;-57
2024/01/24 09:37:59;;;;;;;1.10;0.30;;;;;;;;;;5032995;28;20025;-56
2024/01/24 09:40:25;;;;;;;1.92;0.30;;;;;;;;;;5030364;28;20029;-57
2024/01/24 09:42:50;;;;;;;2.07;0.40;;;;;;;;;;5026636;28;20025;-57
2024/01/24 09:45:18;;;;;;;1.25;0.25;;;;;;;;;;5031322;28;20037;-57
2024/01/24 09:47:45;;;;;;;0.85;0.20;;;;;;;;;;5031316;28;20156;-57
2024/01/24 09:50:11;;;;;;;1.33;0.25;;;;;;;;;;5031176;28;20449;-58
2024/01/24 09:52:37;;;;;;;2.03;0.40;;;;;;;;;;5030118;28;20105;-57
2024/01/24 09:55:04;;;;;;;1.35;0.30;;;;;;;;;;5026745;28;20608;-57
2024/01/24 09:57:30;;;;;;;3.05;0.60;;;;;;;;;;5030573;28;20017;-57
2024/01/24 09:59:55;;;;;;;0.73;0.30;;;;;;;;;;5030800;28;20018;-57
2024/01/24 10:02:20;;;;;;;1.63;0.40;;;;;;;;;;5031685;28;20067;-57
2024/01/24 10:04:46;;;;;;;1.70;0.40;;;;;;;;;;5028862;28;20478;-57
2024/01/24 10:07:12;;;;;;;1.38;0.30;;;;;;;;;;5028123;28;20556;-58
2024/01/24 10:09:37;;;;;;;2.88;0.70;;;;;;;;;;5031078;28;20079;-59
2024/01/24 10:12:03;;;;;;;0.60;0.30;;;;;;;;;;5029566;28;20104;-57
2024/01/24 10:14:29;;;;;;;1.70;0.30;;;;;;;;;;5030811;28;20021;-57
2024/01/24 10:16:54;;;;;;;1.42;0.40;;;;;;;;;;5029879;28;20022;-57
2024/01/24 10:19:24;;;;;;;1.40;0.33;;;;;;;;;;5030406;28;20535;-59
2024/01/24 10:21:49;;;;;;;1.67;0.40;;;;;;;;;;5030185;28;20029;-57
2024/01/24 10:24:14;;;;;;;1.37;0.30;;;;;;;;;;5030337;28;20036;-57
2024/01/24 10:26:40;;;;;;;3.25;0.50;;;;;;;;;;5029158;28;20029;-58
2024/01/24 10:29:06;;;;;;;1.05;0.38;;;;;;;;;;5030688;28;20059;-58
2024/01/24 10:31:32;;;;;;;5.57;2.05;;;;;;;;;;5029712;28;20017;-57
2024/01/24 10:33:57;;;;;;;1.92;0.45;;;;;;;;;;5030314;28;20022;-57
2024/01/24 10:36:23;;;;;;;5.70;2.13;;;;;;;;;;5025334;28;20025;-58
2024/01/24 10:38:49;;;;;;;2.03;0.45;;;;;;;;;;5034632;28;20020;-56
2024/01/24 10:41:15;;;;;;;3.25;1.10;;;;;;;;;;5029746;28;20022;-57
2024/01/24 10:43:47;;;;;;;1.60;0.32;;;;;;;;;;5028950;28;20017;-57
2024/01/24 10:46:14;;;;;;;2.47;0.50;;;;;;;;;;5035652;28;20029;-59
2024/01/24 10:48:40;;;;;;;2.65;0.40;;;;;;;;;;5037804;28;20037;-58
2024/01/24 10:51:06;;;;;;;7.72;3.03;;;;;;;;;;5039442;28;20064;-57
2024/01/24 10:53:31;;;;;;;5.90;1.23;;;;;;;;;;5031903;28;20026;-58
2024/01/24 10:56:00;;;;;;;6.30;1.50;;;;;;;;;;5037904;28;20032;-57
2024/01/24 10:58:28;;;;;;;8.15;1.38;;;;;;;;;;5036373;28;20045;-57
2024/01/24 11:00:53;;;;;;;5.38;1.00;;;;;;;;;;5034509;28;20025;-61
2024/01/24 11:03:18;;;;;;;9.30;1.40;;;;;;;;;;5034247;28;20025;-57
2024/01/24 11:05:46;;;;;;;16.45;2.97;;;;;;;;;;5031375;28;20025;-57
2024/01/24 11:08:20;;;;;;;39.25;6.88;;;;;;;;;;5033798;28;20507;-56
2024/01/24 11:10:46;;;;;;;9.13;1.35;;;;;;;;;;5035554;28;20390;-56
2024/01/24 11:13:11;;;;;;;7.88;1.20;;;;;;;;;;5034473;28;20030;-59
2024/01/24 11:15:36;;;;;;;7.32;1.13;;;;;;;;;;5033615;28;20040;-64
2024/01/24 11:18:21;;;;;;;10.53;1.63;;;;;;;;;;5033210;28;20448;-58
2024/01/24 11:20:47;;;;;;;7.43;0.93;;;;;;;;;;5033729;28;20022;-58
2024/01/24 11:23:31;;;;;;;9.25;1.63;;;;;;;;;;5033439;28;20021;-59
2024/01/24 11:25:56;;;;;;;8.77;1.00;;;;;;;;;;5032507;28;20258;-56
2024/01/24 11:28:24;;;;;;;9.32;1.25;;;;;;;;;;5033424;28;20104;-57
2024/01/24 11:30:50;;;;;;;8.85;1.08;;;;;;;;;;5033952;28;20019;-58
2024/01/24 11:33:16;;;;;;;7.77;1.47;;;;;;;;;;5031933;28;20013;-58
2024/01/24 11:35:41;;;;;;;;;;;;;;;;;;5032926;28;21038;-58
2024/01/24 11:38:27;;;;;;;9.55;1.23;;;;;;;;;;5033286;28;20478;-57
2024/01/24 11:40:55;;;;;;;11.90;1.38;;;;;;;;;;5032570;28;20124;-58
2024/01/24 11:43:25;;;;;;;8.43;1.35;;;;;;;;;;5032435;28;20044;-57
2024/01/24 11:45:53;;;;;;;11.35;2.17;;;;;;;;;;5032373;28;20040;-58
2024/01/24 11:48:19;;;;;;;7.55;1.08;;;;;;;;;;5033084;28;20049;-58
2024/01/24 11:50:46;;;;;;;9.57;1.80;;;;;;;;;;5033911;28;20087;-58
2024/01/24 11:53:11;;;;;;;7.28;1.35;;;;;;;;;;5032632;28;20032;-58
2024/01/24 11:55:36;;;;;;;7.45;1.15;;;;;;;;;;5030021;28;20021;-58
2024/01/24 11:58:03;;;;;;;8.35;1.23;;;;;;;;;;5018586;28;20230;-57
2024/01/24 12:00:28;;;;;;;8.20;1.38;;;;;;;;;;5027790;28;20051;-58
2024/01/24 12:02:53;;;;;;;7.55;1.20;;;;;;;;;;5025673;28;20033;-58
2024/01/24 12:05:18;;;;;;;9.60;1.23;;;;;;;;;;5031110;28;20384;-57
2024/01/24 12:07:43;;;;;;;5.93;0.90;;;;;;;;;;5003869;28;20026;-57
2024/01/24 12:10:09;;;;;;;8.27;1.10;;;;;;;;;;4971220;28;20699;-57
2024/01/24 12:12:35;;;;;;;9.32;1.20;;;;;;;;;;4973227;28;20193;-57
2024/01/24 12:15:00;;;;;;;6.35;0.90;;;;;;;;;;4999254;28;20021;-57
2024/01/24 12:17:26;;;;;;;8.57;1.13;;;;;;;;;;5023766;28;20062;-58
2024/01/24 12:19:51;;;;;;;10.15;1.50;;;;;;;;;;5025228;28;20017;-57
2024/01/24 12:22:17;;;;;;;10.20;1.38;;;;;;;;;;5032516;28;20432;-57
2024/01/24 12:24:42;;;;;;;9.40;1.70;;;;;;;;;;5026951;28;20025;-58
2024/01/24 12:27:08;;;;;;;7.05;1.13;;;;;;;;;;5030130;28;20029;-58
2024/01/24 12:29:33;;;;;;;9.27;1.75;;;;;;;;;;5032385;28;20049;-57
2024/01/24 12:32:03;;;;;;;10.40;1.53;;;;;;;;;;5032121;28;20405;-57
2024/01/24 12:34:29;;;;;;;8.68;1.30;;;;;;;;;;5031412;28;20487;-58
2024/01/24 12:36:55;;;;;;;9.68;1.25;;;;;;;;;;5030154;28;20089;-57
2024/01/24 12:39:46;;;;;;;8.75;1.45;;;;;;;;;;5029510;28;20063;-57
2024/01/24 12:42:11;;;;;;;6.90;1.13;;;;;;;;;;5035097;28;20041;-57
2024/01/24 12:44:38;;;;;;;7.32;0.98;;;;;;;;;;5037356;28;20136;-57
2024/01/24 12:47:03;;;;;;;6.13;1.00;;;;;;;;;;5035202;28;20346;-58
2024/01/24 12:49:28;;;;;;;7.53;1.20;;;;;;;;;;5031391;28;20040;-58
2024/01/24 12:51:54;;;;;;;6.78;1.00;;;;;;;;;;5031623;28;20452;-57
2024/01/24 12:54:20;;;;;;;8.23;1.33;;;;;;;;;;5032482;28;20027;-57
2024/01/24 12:56:46;;;;;;;6.95;1.10;;;;;;;;;;5031861;28;20104;-57
2024/01/24 12:59:11;;;;;;;6.38;1.08;;;;;;;;;;5037656;28;20052;-57
2024/01/24 13:01:37;;;;;;;7.73;1.37;;;;;;;;;;5032785;28;20478;-58
2024/01/24 13:04:02;;;;;;;14.02;1.60;;;;;;;;;;5033636;28;20036;-57
2024/01/24 13:06:28;;;;;;;10.45;1.50;;;;;;;;;;5033439;28;20022;-57
2024/01/24 13:08:53;;;;;;;9.45;1.40;;;;;;;;;;5030157;28;20107;-58
2024/01/24 13:11:18;;;;;;;8.47;1.30;;;;;;;;;;5032107;28;20017;-58
2024/01/24 13:13:43;;;;;;;7.30;1.27;;;;;;;;;;5029435;28;20037;-57
2024/01/24 13:16:08;;;;;;;8.88;1.20;;;;;;;;;;5031751;28;20021;-58
2024/01/24 13:18:34;;;;;;;7.43;1.37;;;;;;;;;;5041127;28;20025;-58
2024/01/24 13:20:59;;;;;;;9.43;1.50;;;;;;;;;;5036565;28;20041;-59
2024/01/24 13:23:24;;;;;;;8.93;2.20;;;;;;;;;;5031782;28;20075;-57
2024/01/24 13:25:49;;;;;;;9.07;1.67;;;;;;;;;;5032389;28;20496;-58
2024/01/24 13:28:14;;;;;;;12.83;1.70;;;;;;;;;;5029940;28;20479;-58
2024/01/24 13:30:40;;;;;;;11.63;1.93;;;;;;;;;;5025686;28;20468;-58
2024/01/24 13:33:06;;;;;;;11.07;1.57;;;;;;;;;;5025452;28;20106;-57
2024/01/24 13:35:31;;;;;;;15.80;1.90;;;;;;;;;;5032614;28;20013;-57
2024/01/24 13:37:57;;;;;;;8.18;1.30;;;;;;;;;;5025696;28;20045;-57
2024/01/24 13:40:23;;;;;;;9.90;1.30;;;;;;;;;;5020967;28;20105;-57
2024/01/24 13:42:48;;;;;;;12.30;1.92;;;;;;;;;;5034547;28;20039;-58
2024/01/24 13:45:14;;;;;;;10.18;1.60;;;;;;;;;;5028993;28;20157;-58
2024/01/24 13:47:39;;;;;;;9.23;1.55;;;;;;;;;;5029611;28;20026;-60
2024/01/24 13:50:05;;;;;;;10.60;1.83;;;;;;;;;;5030694;28;20037;-58
2024/01/24 13:52:30;;;;;;;13.63;2.53;;;;;;;;;;5030383;28;20022;-59
2024/01/24 13:54:55;;;;;;;10.98;1.90;;;;;;;;;;5029577;28;20014;-58
2024/01/24 13:57:20;;;;;;;11.07;1.63;;;;;;;;;;5022474;28;20105;-58
2024/01/24 13:59:45;;;;;;;9.83;1.67;;;;;;;;;;5027298;28;20421;-62
2024/01/24 14:02:11;;;;;;;9.43;1.60;;;;;;;;;;5023970;28;20470;-57
2024/01/24 14:04:36;;;;;;;11.43;1.67;;;;;;;;;;5031316;28;20029;-57
2024/01/24 14:07:01;;;;;;;8.25;1.60;;;;;;;;;;5030603;28;20081;-58
2024/01/24 14:09:26;;;;;;;8.52;1.60;;;;;;;;;;5029798;28;20037;-62
2024/01/24 14:11:53;;;;;;;13.10;1.93;;;;;;;;;;5032756;28;20489;-57
2024/01/24 14:14:18;;;;;;;;;;;;;;;;;;5035055;28;20074;-59
2024/01/24 14:16:44;;;;;;;12.63;1.77;;;;;;;;;;5030794;28;19908;-59
2024/01/24 14:19:10;;;;;;;;;;;;;;;;;;5037335;28;20622;-58
2024/01/24 14:21:36;;;;;;;10.55;1.67;;;;;;;;;;5030083;28;20387;-58
2024/01/24 14:24:01;;;;;;;;;;;;;;;;;;5028382;28;20061;-57
2024/01/24 14:26:30;;;;;;;12.57;1.67;;;;;;;;;;5032102;28;20051;-58
2024/01/24 14:28:55;;;;;;;12.02;1.73;;;;;;;;;;5025679;28;20056;-58
2024/01/24 14:31:20;;;;;;;10.93;1.90;;;;;;;;;;5029978;28;20036;-58
2024/01/24 14:33:45;;;;;;;10.45;1.73;;;;;;;;;;5031024;28;20025;-58